createdAt,value
2018-05-15T00:01:31.554Z,3.83
2018-05-15T00:04:03.007Z,3.90
2018-05-15T00:06:36.746Z,4.40
2018-05-15T00:09:07.847Z,3.40
2018-05-15T00:11:40.009Z,4.00
2018-05-15T00:14:11.380Z,4.20
2018-05-15T00:16:42.948Z,3.90
2018-05-15T00:19:14.366Z,3.93
2018-05-15T00:21:45.782Z,4.47
2018-05-15T00:24:17.286Z,4.00
2018-05-15T00:26:49.447Z,3.80
2018-05-15T00:29:20.882Z,4.00
2018-05-15T00:31:52.310Z,3.87
2018-05-15T00:34:23.736Z,4.07
2018-05-15T00:36:55.194Z,3.80
2018-05-15T00:39:26.798Z,3.90
2018-05-15T00:41:58.269Z,3.67
2018-05-15T00:44:29.692Z,4.23
2018-05-15T00:47:01.847Z,4.10
2018-05-15T00:49:33.201Z,3.90
2018-05-15T00:52:04.590Z,4.07
2018-05-15T00:54:35.995Z,4.23
2018-05-15T00:57:07.490Z,3.63
2018-05-15T00:59:39.627Z,3.93
2018-05-15T01:02:11.021Z,3.90
2018-05-15T01:04:42.396Z,3.57
2018-05-15T01:07:13.809Z,3.70
2018-05-15T01:09:46.014Z,3.50
2018-05-15T01:12:17.411Z,4.10
2018-05-15T01:14:48.831Z,4.07
2018-05-15T01:17:20.372Z,3.43
2018-05-15T01:19:51.786Z,3.70
2018-05-15T01:22:23.934Z,3.77
2018-05-15T01:24:56.203Z,3.70
2018-05-15T01:27:27.579Z,3.37
2018-05-15T01:29:59.037Z,4.20
2018-05-15T01:32:30.406Z,3.60
2018-05-15T01:35:01.846Z,3.50
2018-05-15T01:37:33.523Z,3.97
2018-05-15T01:40:05.984Z,3.60
2018-05-15T01:42:37.389Z,3.90
2018-05-15T01:45:09.592Z,3.70
2018-05-15T01:47:41.763Z,3.57
2018-05-15T01:50:14.804Z,3.33
2018-05-15T01:52:46.339Z,3.87
2018-05-15T01:55:17.705Z,3.40
2018-05-15T01:57:49.228Z,3.77
2018-05-15T02:00:21.681Z,3.70
2018-05-15T02:02:53.549Z,3.50
2018-05-15T02:05:25.683Z,3.80
2018-05-15T02:07:57.113Z,3.97
2018-05-15T02:10:28.467Z,3.70
2018-05-15T02:13:00.026Z,3.50
2018-05-15T02:15:31.433Z,3.93
2018-05-15T02:18:03.703Z,3.63
2018-05-15T02:20:35.379Z,4.10
2018-05-15T02:23:06.735Z,3.90
2018-05-15T02:25:37.788Z,3.73
2018-05-15T02:28:09.181Z,3.80
2018-05-15T02:30:40.753Z,3.70
2018-05-15T02:33:12.907Z,4.07
2018-05-15T02:35:44.255Z,3.83
2018-05-15T02:38:16.531Z,4.07
2018-05-15T02:40:49.370Z,4.10
2018-05-15T02:43:20.769Z,3.73
2018-05-15T02:45:52.917Z,3.90
2018-05-15T02:48:24.546Z,4.00
2018-05-15T02:50:55.947Z,4.07
2018-05-15T02:53:28.260Z,4.00
2018-05-15T02:55:59.746Z,4.13
2018-05-15T02:58:31.176Z,4.00
2018-05-15T03:01:02.582Z,4.10
2018-05-15T03:03:34.701Z,4.57
2018-05-15T03:06:06.083Z,4.20
2018-05-15T03:08:37.655Z,4.07
2018-05-15T03:11:09.818Z,4.50
2018-05-15T03:13:41.971Z,3.90
2018-05-15T03:16:14.035Z,4.33
2018-05-15T03:18:45.915Z,3.93
2018-05-15T03:21:17.445Z,3.97
2018-05-15T03:23:49.284Z,4.27
2018-05-15T03:26:20.664Z,4.20
2018-05-15T03:28:52.056Z,4.23
2018-05-15T03:31:24.658Z,4.50
2018-05-15T03:33:56.148Z,4.57
2018-05-15T03:36:28.317Z,4.50
2018-05-15T03:38:59.677Z,4.30
2018-05-15T03:41:31.999Z,4.33
2018-05-15T03:44:03.431Z,5.27
2018-05-15T03:46:34.778Z,4.80
2018-05-15T03:49:06.154Z,4.60
2018-05-15T03:51:37.560Z,4.80
2018-05-15T03:54:09.681Z,4.90
2018-05-15T03:56:41.093Z,4.50
2018-05-15T03:59:12.465Z,4.87
2018-05-15T04:02:00.549Z,5.10
2018-05-15T04:04:48.710Z,4.23
2018-05-15T04:07:36.929Z,4.37
2018-05-15T04:10:08.091Z,4.87
2018-05-15T04:12:40.775Z,4.53
2018-05-15T04:15:12.195Z,4.83
2018-05-15T04:17:43.573Z,4.70
2018-05-15T04:20:14.936Z,4.87
2018-05-15T04:22:47.068Z,4.67
2018-05-15T04:25:18.475Z,4.60
2018-05-15T04:27:49.849Z,4.77
2018-05-15T04:30:21.393Z,4.50
2018-05-15T04:32:52.769Z,5.10
2018-05-15T04:35:26.121Z,4.50
2018-05-15T04:37:57.506Z,4.60
2018-05-15T04:40:28.858Z,4.90
2018-05-15T04:43:00.258Z,4.83
2018-05-15T04:45:32.369Z,4.80
2018-05-15T04:48:04.619Z,5.27
2018-05-15T04:50:35.962Z,5.47
2018-05-15T04:53:07.363Z,4.70
2018-05-15T04:55:38.783Z,4.50
2018-05-15T04:58:10.313Z,4.30
2018-05-15T05:00:41.743Z,4.73
2018-05-15T05:03:13.991Z,4.93
2018-05-15T05:05:45.776Z,5.37
2018-05-15T05:08:17.938Z,6.10
2018-05-15T05:10:50.120Z,5.50
2018-05-15T05:13:21.678Z,4.83
2018-05-15T05:15:53.079Z,5.37
2018-05-15T05:18:24.513Z,5.23
2018-05-15T05:20:55.895Z,5.37
2018-05-15T05:23:27.474Z,5.67
2018-05-15T05:25:59.657Z,5.23
2018-05-15T05:28:31.061Z,5.43
2018-05-15T05:31:03.452Z,5.03
2018-05-15T05:33:34.934Z,5.60
2018-05-15T05:36:06.375Z,5.23
2018-05-15T05:38:37.754Z,5.47
2018-05-15T05:41:09.246Z,6.90
2018-05-15T05:43:40.613Z,5.23
2018-05-15T05:46:12.110Z,5.13
2018-05-15T05:48:43.660Z,5.50
2018-05-15T05:51:16.413Z,5.07
2018-05-15T05:53:47.862Z,6.03
2018-05-15T05:56:20.047Z,5.63
2018-05-15T05:58:52.422Z,5.30
2018-05-15T06:01:23.942Z,6.30
2018-05-15T06:03:56.529Z,5.80
2018-05-15T06:06:28.027Z,6.43
2018-05-15T06:08:59.556Z,8.73
2018-05-15T06:11:31.753Z,6.67
2018-05-15T06:14:03.122Z,6.23
2018-05-15T06:16:34.534Z,6.30
2018-05-15T06:19:06.666Z,6.33
2018-05-15T06:21:38.150Z,5.73
2018-05-15T06:24:10.397Z,5.87
2018-05-15T06:26:41.868Z,5.87
2018-05-15T06:29:13.275Z,6.17
2018-05-15T06:31:44.665Z,6.00
2018-05-15T06:34:17.631Z,6.10
2018-05-15T06:36:49.275Z,6.43
2018-05-15T06:39:20.736Z,6.10
2018-05-15T06:41:52.186Z,6.50
2018-05-15T06:44:23.893Z,6.50
2018-05-15T06:46:56.058Z,6.63
2018-05-15T06:49:28.206Z,6.33
2018-05-15T06:52:00.424Z,6.07
2018-05-15T06:54:31.870Z,6.23
2018-05-15T06:57:03.431Z,5.70
2018-05-15T06:59:34.817Z,5.67
2018-05-15T07:02:06.459Z,6.73
2018-05-15T07:04:37.851Z,6.00
2018-05-15T07:07:10.106Z,5.80
2018-05-15T07:09:41.477Z,5.63
2018-05-15T07:12:13.165Z,5.97
2018-05-15T07:14:44.577Z,5.47
2018-05-15T07:17:16.726Z,6.80
2018-05-15T07:19:48.121Z,5.93
2018-05-15T07:22:19.711Z,4.97
2018-05-15T07:24:51.231Z,5.43
2018-05-15T07:27:22.457Z,5.27
2018-05-15T07:29:54.008Z,5.37
2018-05-15T07:32:25.450Z,5.23
2018-05-15T07:34:56.822Z,5.00
2018-05-15T07:37:29.081Z,5.17
2018-05-15T07:40:01.921Z,5.20
2018-05-15T07:42:33.368Z,5.20
2018-05-15T07:45:04.248Z,5.23
2018-05-15T07:47:35.849Z,5.00
2018-05-15T07:50:07.316Z,6.13
2018-05-15T07:52:39.714Z,5.67
2018-05-15T07:55:11.203Z,5.60
2018-05-15T07:57:42.692Z,5.37
2018-05-15T08:00:14.465Z,5.53
2018-05-15T08:02:46.150Z,5.60
2018-05-15T08:05:17.858Z,4.90
2018-05-15T08:07:49.247Z,4.80
2018-05-15T08:10:20.666Z,4.40
2018-05-15T08:12:52.234Z,5.43
2018-05-15T08:15:23.691Z,4.90
2018-05-15T08:17:55.788Z,4.83
2018-05-15T08:20:28.313Z,4.73
2018-05-15T08:23:00.081Z,4.13
2018-05-15T08:25:33.440Z,4.10
2018-05-15T08:28:05.613Z,4.43
2018-05-15T08:30:37.502Z,4.90
2018-05-15T08:33:08.958Z,5.10
2018-05-15T08:35:40.509Z,4.60
2018-05-15T08:38:11.901Z,4.43
2018-05-15T08:40:43.529Z,4.70
2018-05-15T08:43:15.204Z,4.47
2018-05-15T08:45:46.726Z,3.97
2018-05-15T08:48:18.296Z,4.27
2018-05-15T08:50:50.128Z,4.53
2018-05-15T08:53:22.281Z,4.20
2018-05-15T08:55:53.605Z,3.77
2018-05-15T08:58:25.333Z,3.77
2018-05-15T09:00:57.233Z,3.83
2018-05-15T09:03:29.839Z,3.73
2018-05-15T09:06:01.366Z,4.10
2018-05-15T09:08:33.549Z,3.70
2018-05-15T09:11:04.972Z,3.63
2018-05-15T09:13:36.468Z,4.00
2018-05-15T09:16:08.265Z,3.80
2018-05-15T09:18:39.743Z,3.87
2018-05-15T09:21:11.559Z,3.17
2018-05-15T09:23:43.148Z,3.90
2018-05-15T09:26:14.746Z,3.40
2018-05-15T09:28:46.982Z,3.33
2018-05-15T09:31:18.434Z,3.20
2018-05-15T09:33:50.119Z,3.13
2018-05-15T09:36:22.337Z,3.13
2018-05-15T09:38:54.394Z,3.30
2018-05-15T09:41:26.148Z,3.10
2018-05-15T09:43:56.846Z,2.90
2018-05-15T09:46:28.260Z,3.00
2018-05-15T09:49:00.485Z,2.93
2018-05-15T09:51:31.889Z,3.20
2018-05-15T09:54:03.389Z,3.07
2018-05-15T09:56:35.862Z,2.77
2018-05-15T09:59:07.307Z,2.73
2018-05-15T10:01:38.687Z,3.47
2018-05-15T10:04:10.156Z,3.00
2018-05-15T10:06:41.600Z,2.77
2018-05-15T10:09:12.989Z,3.07
2018-05-15T10:11:44.493Z,3.00
2018-05-15T10:14:15.874Z,2.90
2018-05-15T10:16:47.496Z,3.10
2018-05-15T10:19:18.899Z,3.13
2018-05-15T10:21:50.959Z,2.95
2018-05-15T10:24:22.363Z,3.08
2018-05-15T10:26:54.616Z,3.28
2018-05-15T10:29:26.594Z,3.08
2018-05-15T10:31:58.554Z,3.50
2018-05-15T10:34:30.633Z,3.50
2018-05-15T10:37:03.415Z,3.03
2018-05-15T10:39:35.419Z,3.30
2018-05-15T10:42:07.408Z,3.25
2018-05-15T10:44:39.362Z,2.85
2018-05-15T10:47:12.205Z,3.45
2018-05-15T10:49:45.263Z,3.25
2018-05-15T10:52:18.308Z,3.92
2018-05-15T10:54:50.550Z,3.17
2018-05-15T10:57:22.772Z,3.10
2018-05-15T10:59:54.982Z,3.60
2018-05-15T11:02:27.020Z,3.45
2018-05-15T11:04:59.055Z,3.50
2018-05-15T11:07:32.109Z,3.37
2018-05-15T11:10:03.728Z,3.17
2018-05-15T11:12:36.591Z,3.17
2018-05-15T11:15:08.645Z,2.83
2018-05-15T11:17:40.631Z,3.72
2018-05-15T11:20:29.365Z,2.80
2018-05-15T11:23:18.781Z,2.83
2018-05-15T11:25:52.523Z,3.10
2018-05-15T11:28:24.486Z,2.97
2018-05-15T11:30:56.946Z,3.17
2018-05-15T11:33:28.939Z,3.30
2018-05-15T11:36:00.899Z,3.17
2018-05-15T11:38:32.787Z,3.30
2018-05-15T11:41:04.760Z,3.12
2018-05-15T11:43:37.355Z,3.10
2018-05-15T11:46:09.290Z,3.60
2018-05-15T11:48:42.678Z,3.20
2018-05-15T11:51:15.186Z,3.47
2018-05-15T11:53:46.302Z,3.42
2018-05-15T11:56:18.331Z,3.05
2018-05-15T11:58:50.342Z,3.40
2018-05-15T12:01:22.307Z,3.55
2018-05-15T12:03:54.512Z,3.83
2018-05-15T12:06:26.706Z,3.62
2018-05-15T12:08:58.878Z,3.40
2018-05-15T12:11:31.089Z,3.15
2018-05-15T12:14:03.542Z,3.35
2018-05-15T12:16:36.963Z,3.10
2018-05-15T12:19:08.926Z,3.37
2018-05-15T12:21:41.670Z,3.33
2018-05-15T12:24:15.167Z,3.12
2018-05-15T12:26:47.150Z,2.97
2018-05-15T12:29:19.182Z,3.35
2018-05-15T12:31:51.232Z,3.20
2018-05-15T12:34:24.130Z,3.67
2018-05-15T12:36:56.937Z,3.03
2018-05-15T12:39:28.949Z,3.22
2018-05-15T12:42:01.757Z,3.45
2018-05-15T12:44:34.851Z,3.62
2018-05-15T12:47:06.826Z,3.67
2018-05-15T12:49:39.595Z,4.18
2018-05-15T12:52:11.555Z,3.17
2018-05-15T12:54:44.381Z,3.78
2018-05-15T12:57:17.572Z,3.60
2018-05-15T12:59:50.311Z,3.60
2018-05-15T13:02:22.290Z,3.37
2018-05-15T13:04:54.434Z,3.10
2018-05-15T13:07:28.164Z,3.20
2018-05-15T13:10:01.368Z,2.90
2018-05-15T13:12:33.975Z,3.22
2018-05-15T13:15:06.766Z,3.35
2018-05-15T13:17:38.706Z,2.92
2018-05-15T13:20:11.509Z,2.97
2018-05-15T13:22:44.298Z,2.87
2018-05-15T13:25:15.879Z,2.80
2018-05-15T13:27:47.845Z,2.70
2018-05-15T13:30:20.712Z,2.65
2018-05-15T13:32:52.924Z,2.83
2018-05-15T13:35:24.961Z,3.22
2018-05-15T13:37:57.057Z,3.35
2018-05-15T13:40:29.884Z,4.05
2018-05-15T13:43:03.005Z,3.67
2018-05-15T13:45:34.969Z,3.50
2018-05-15T13:48:07.108Z,4.57
2018-05-15T13:50:39.125Z,3.87
2018-05-15T13:53:11.275Z,3.47
2018-05-15T13:55:43.555Z,2.85
2018-05-15T13:58:15.496Z,3.20
2018-05-15T14:00:47.642Z,3.60
2018-05-15T14:03:20.632Z,4.22
2018-05-15T14:05:52.876Z,3.58
2018-05-15T14:08:24.887Z,3.55
2018-05-15T14:10:56.877Z,3.53
2018-05-15T14:13:28.839Z,3.40
2018-05-15T14:16:00.995Z,2.95
2018-05-15T14:18:33.254Z,3.62
2018-05-15T14:21:04.890Z,3.78
2018-05-15T14:23:40.478Z,4.07
2018-05-15T14:26:12.425Z,3.70
2018-05-15T14:28:44.453Z,3.17
2018-05-15T14:31:16.890Z,3.17
2018-05-15T14:33:48.936Z,3.28
2018-05-15T14:36:20.891Z,3.20
2018-05-15T14:38:53.122Z,3.60
2018-05-15T14:41:41.834Z,3.87
2018-05-15T14:44:13.329Z,4.17
2018-05-15T14:46:45.001Z,4.40
2018-05-15T14:49:16.404Z,2.97
2018-05-15T14:51:48.246Z,3.60
2018-05-15T14:54:19.627Z,3.53
2018-05-15T14:56:51.011Z,3.10
2018-05-15T14:59:22.408Z,3.00
2018-05-15T15:01:54.518Z,3.40
2018-05-15T15:04:25.940Z,3.00
2018-05-15T15:06:58.239Z,3.53
2018-05-15T15:09:29.606Z,2.90
2018-05-15T15:12:00.991Z,3.07
2018-05-15T15:14:33.184Z,3.00
2018-05-15T15:17:04.623Z,3.00
2018-05-15T15:19:36.414Z,2.78
2018-05-15T15:22:08.171Z,3.58
2018-05-15T15:24:40.083Z,2.90
2018-05-15T15:27:13.231Z,3.10
2018-05-15T15:29:45.237Z,2.90
2018-05-15T15:32:17.173Z,3.30
2018-05-15T15:34:49.381Z,3.03
2018-05-15T15:37:21.361Z,2.92
2018-05-15T15:39:53.359Z,2.58
2018-05-15T15:42:25.572Z,2.70
2018-05-15T15:44:58.755Z,2.78
2018-05-15T15:47:30.853Z,3.05
2018-05-15T15:50:03.166Z,2.50
2018-05-15T15:52:35.962Z,2.60
2018-05-15T15:55:07.367Z,2.60
2018-05-15T15:57:38.736Z,3.10
2018-05-15T16:00:10.164Z,2.67
2018-05-15T16:02:42.323Z,2.90
2018-05-15T16:05:14.486Z,2.57
2018-05-15T16:07:45.964Z,2.57
2018-05-15T16:10:17.397Z,2.70
2018-05-15T16:12:49.522Z,2.57
2018-05-15T16:15:20.915Z,2.97
2018-05-15T16:17:53.199Z,2.60
2018-05-15T16:20:25.411Z,2.60
2018-05-15T16:22:56.959Z,2.27
2018-05-15T16:25:28.380Z,2.73
2018-05-15T16:27:59.827Z,2.70
2018-05-15T16:30:31.264Z,2.57
2018-05-15T16:33:03.465Z,2.63
2018-05-15T16:35:35.621Z,2.63
2018-05-15T16:38:06.992Z,2.60
2018-05-15T16:40:38.535Z,2.40
2018-05-15T16:43:10.673Z,3.00
2018-05-15T16:45:42.851Z,2.90
2018-05-15T16:48:15.028Z,3.07
2018-05-15T16:50:46.660Z,2.60
2018-05-15T16:53:19.075Z,3.10
2018-05-15T16:55:50.687Z,2.47
2018-05-15T16:58:22.100Z,3.00
2018-05-15T17:00:53.909Z,2.37
2018-05-15T17:03:26.170Z,2.70
2018-05-15T17:05:57.571Z,2.30
2018-05-15T17:08:28.934Z,2.27
2018-05-15T17:11:00.402Z,2.63
2018-05-15T17:13:32.248Z,2.40
2018-05-15T17:16:03.783Z,2.60
2018-05-15T17:18:35.224Z,2.23
2018-05-15T17:21:07.651Z,2.40
2018-05-15T17:23:39.203Z,2.67
2018-05-15T17:26:10.616Z,2.60
2018-05-15T17:28:42.150Z,2.87
2018-05-15T17:31:13.654Z,2.57
2018-05-15T17:33:45.375Z,2.20
2018-05-15T17:36:17.566Z,2.07
2018-05-15T17:38:48.968Z,2.50
2018-05-15T17:41:21.056Z,2.53
2018-05-15T17:43:52.466Z,2.47
2018-05-15T17:46:23.840Z,2.30
2018-05-15T17:48:55.335Z,2.60
2018-05-15T17:51:27.035Z,2.30
2018-05-15T17:53:58.404Z,2.37
2018-05-15T17:56:30.564Z,2.43
2018-05-15T17:59:01.973Z,2.67
2018-05-15T18:01:33.842Z,2.10
2018-05-15T18:04:05.276Z,2.30
2018-05-15T18:06:36.937Z,2.30
2018-05-15T18:09:08.397Z,2.77
2018-05-15T18:11:39.779Z,2.40
2018-05-15T18:14:11.191Z,2.70
2018-05-15T18:16:42.623Z,2.97
2018-05-15T18:19:13.995Z,2.80
2018-05-15T18:21:45.457Z,2.70
2018-05-15T18:24:17.355Z,2.57
2018-05-15T18:26:48.954Z,3.17
2018-05-15T18:29:20.365Z,2.70
2018-05-15T18:31:52.642Z,3.13
2018-05-15T18:34:24.000Z,2.67
2018-05-15T18:36:56.214Z,3.00
2018-05-15T18:39:27.950Z,3.10
2018-05-15T18:41:59.400Z,2.80
2018-05-15T18:44:30.838Z,2.93
2018-05-15T18:47:02.518Z,2.93
2018-05-15T18:49:34.295Z,2.97
2018-05-15T18:52:05.758Z,7.00
2018-05-15T18:54:37.217Z,4.23
2018-05-15T18:57:08.596Z,3.70
2018-05-15T18:59:40.730Z,3.30
2018-05-15T19:02:12.151Z,3.37
2018-05-15T19:04:43.574Z,3.03
2018-05-15T19:07:15.145Z,3.43
2018-05-15T19:09:47.246Z,3.07
2018-05-15T19:12:18.859Z,2.93
2018-05-15T19:14:50.261Z,3.60
2018-05-15T19:17:21.693Z,3.07
2018-05-15T19:19:53.251Z,4.43
2018-05-15T19:22:27.127Z,3.23
2018-05-15T19:24:59.500Z,3.20
2018-05-15T19:27:31.212Z,3.73
2018-05-15T19:30:02.616Z,3.07
2018-05-15T19:32:39.087Z,3.00
2018-05-15T19:35:10.497Z,3.27
2018-05-15T19:37:42.724Z,3.10
2018-05-15T19:40:13.939Z,3.03
2018-05-15T19:42:46.149Z,3.03
2018-05-15T19:45:17.487Z,2.97
2018-05-15T19:47:49.065Z,2.93
2018-05-15T19:50:20.920Z,3.00
2018-05-15T19:52:54.540Z,3.50
2018-05-15T19:55:25.968Z,3.60
2018-05-15T19:57:58.395Z,3.40
2018-05-15T20:00:29.756Z,3.63
2018-05-15T20:03:01.965Z,3.20
2018-05-15T20:05:33.371Z,3.60
2018-05-15T20:08:04.836Z,3.77
2018-05-15T20:10:36.232Z,3.80
2018-05-15T20:13:07.692Z,3.77
2018-05-15T20:15:39.107Z,3.37
2018-05-15T20:18:10.598Z,3.40
2018-05-15T20:20:42.081Z,3.33
2018-05-15T20:23:14.283Z,3.50
2018-05-15T20:25:46.625Z,4.00
2018-05-15T20:28:18.051Z,3.30
2018-05-15T20:30:49.707Z,3.97
2018-05-15T20:33:21.940Z,3.07
2018-05-15T20:35:53.362Z,3.53
2018-05-15T20:38:24.724Z,3.27
2018-05-15T20:40:57.903Z,3.80
2018-05-15T20:43:30.554Z,3.40
2018-05-15T20:46:02.103Z,3.93
2018-05-15T20:48:35.276Z,4.10
2018-05-15T20:51:06.822Z,3.83
2018-05-15T20:53:38.372Z,3.80
2018-05-15T20:56:09.730Z,3.67
2018-05-15T20:58:41.185Z,3.80
2018-05-15T21:01:12.694Z,3.90
2018-05-15T21:03:44.861Z,3.90
2018-05-15T21:06:18.062Z,3.93
2018-05-15T21:08:49.505Z,4.00
2018-05-15T21:11:21.657Z,3.60
2018-05-15T21:13:53.053Z,3.73
2018-05-15T21:16:24.453Z,3.47
2018-05-15T21:18:55.859Z,3.90
2018-05-15T21:21:27.262Z,3.40
2018-05-15T21:23:58.659Z,3.40
2018-05-15T21:26:31.079Z,3.90
2018-05-15T21:29:02.515Z,3.50
2018-05-15T21:31:33.931Z,3.40
2018-05-15T21:34:05.609Z,3.83
2018-05-15T21:36:37.176Z,3.93
2018-05-15T21:39:08.584Z,3.97
2018-05-15T21:41:40.152Z,4.70
2018-05-15T21:44:11.552Z,3.87
2018-05-15T21:46:42.930Z,3.97
2018-05-15T21:49:14.415Z,4.60
2018-05-15T21:51:46.783Z,4.23
2018-05-15T21:54:18.341Z,3.97
2018-05-15T21:56:49.774Z,3.70
2018-05-15T21:59:21.149Z,4.40
2018-05-15T22:01:52.562Z,4.63
2018-05-15T22:04:25.597Z,4.23
2018-05-15T22:06:56.996Z,4.17
2018-05-15T22:09:29.131Z,4.43
2018-05-15T22:12:17.434Z,4.60
2018-05-15T22:15:11.442Z,4.40
2018-05-15T22:18:05.545Z,4.73
2018-05-15T22:20:59.341Z,3.87
2018-05-15T22:23:34.755Z,4.43
2018-05-15T22:26:05.823Z,5.00
2018-05-15T22:28:37.243Z,4.40
2018-05-15T22:31:08.635Z,4.43
2018-05-15T22:33:39.675Z,4.80
2018-05-15T22:36:11.049Z,5.07
2018-05-15T22:38:42.433Z,4.83
2018-05-15T22:41:13.833Z,4.70
2018-05-15T22:43:45.986Z,4.87
2018-05-15T22:46:17.409Z,5.10
2018-05-15T22:48:48.805Z,4.70
2018-05-15T22:51:20.963Z,4.70
2018-05-15T22:53:53.119Z,4.43
2018-05-15T22:56:24.630Z,4.73
2018-05-15T22:58:57.656Z,5.27
2018-05-15T23:01:29.333Z,4.80
2018-05-15T23:04:00.737Z,5.17
2018-05-15T23:06:32.147Z,4.80
2018-05-15T23:09:03.579Z,5.20
2018-05-15T23:11:34.953Z,5.13
2018-05-15T23:14:06.368Z,4.90
2018-05-15T23:16:37.773Z,5.43
2018-05-15T23:19:09.181Z,5.30
2018-05-15T23:21:40.618Z,4.97
2018-05-15T23:24:12.299Z,5.20
2018-05-15T23:26:43.700Z,5.20
2018-05-15T23:29:15.058Z,5.63
2018-05-15T23:31:46.491Z,5.50
2018-05-15T23:34:17.963Z,5.80
2018-05-15T23:36:50.438Z,5.10
2018-05-15T23:39:21.842Z,4.77
2018-05-15T23:41:53.997Z,4.77
2018-05-15T23:44:25.536Z,5.17
2018-05-15T23:46:57.139Z,4.80
2018-05-15T23:49:28.725Z,5.40
2018-05-15T23:52:00.150Z,5.20
2018-05-15T23:54:31.542Z,4.87
2018-05-15T23:57:02.980Z,4.87
2018-05-15T23:59:34.029Z,4.60
